Startpagina
METAR-TAF:

METAR-TAF

Vliegvelden :

Aéroport de Luxembourg

Luxemburg, Luxemburg

breedte: 49-37N, lengte: 006-13E, hoogte: 376 m

Actueel weer

Dit bericht is 41 minuten geleden gemaakt, om 04:50 UTC
Wind 4 kt uit het westzuidwesten, variërend tussen het zuidzuidwesten en het westen
Temperatuur 14°C
Vochtigheid 100%
Druk 1016 hPa
Zicht: 0600 m
Gebroken wolken lager dan 100 ft
mist

METAR: ELLX 190450Z 24004KT 210V270 0600 R24/0275V0700D FG BKN000 14/14 Q1016 TEMPO 0500 BKN001

Tijdstip: 07:31 (05:31 UTC)

Verwachting

Dit bericht is 6 uur en het 31 minuten geleden gemaakt, om 23:00 UTC
Verwachting geldig van 19 om 00 UTC tot 20 om 06 UTC
Wind 10 kt uit het westzuidwesten
Zicht 10 km of meer
geen wolken onder 1500 m en geen cumulonimbus
Kans 30% :
Tijdelijke
van 19 om 03 UTC tot 19 om 07 UTC
Zicht: 3000 m
Gebroken wolken op 700 ft
nevel

TAF: ELLX 182300Z 1900/2006 25010KT CAVOK PROB30 TEMPO 1903/1907 3000 BR BKN007

Waarnemingen en weersverwachtingen van meer dan 4000 vliegvelden (METAR en TAF).

De beschikbare stations zijn de gele en rode punten op de kaart.

Ga met uw muis naar het station om de naam te zien.

Klik dan om waarnemingen en weersverwachtingen te zien.

kaart wijzigen: klik op de groene knoppen met een zwart kruis om in te zoomen, op de groene knop met een streepje om uit te zoomen of op de groene pijlen voor aangrenzende kaarten.


METAR-TAF: